YBPN

Details ICAO YBPN (PPP)
Name Proserpine Whitsunday Coast
Region Australia
Timezone Australia/Brisbane (UTC+10.0)
Plans Departing 6
Arriving 15
Stats Elevation 82 ft / 25 m (AMSL)
Location -20.493332° 148.557010°
Runways 2
Magnetic Variation 8.083° E
Sunrise 2017-12-14 19:21:14 UTC / 2017-12-15 05:21:14 Local
Sunset 2017-12-15 08:43:01 UTC / 2017-12-15 18:43:01 Local
Advertisement - Login to hide

Runways

ID Width Length Bearing (true) Bearing (mag) Surface Threshold Offset Overrun Length
06 98 ft / 30 m 4,104 ft / 1,251 m 67.07° 58.99° Asphalt 0 ft / 0 m 0 ft / 0 m
11 148 ft / 45 m 6,802 ft / 2,073 m 114.60° 106.52° Asphalt 0 ft / 0 m 0 ft / 0 m
24 98 ft / 30 m 4,104 ft / 1,251 m 247.07° 238.99° Asphalt 0 ft / 0 m 0 ft / 0 m
29 148 ft / 45 m 6,802 ft / 2,073 m 294.60° 286.52° Asphalt 0 ft / 0 m 230 ft / 70 m

Map

Weather


0- 5 10 15 20 25 30 35+ Temperature / ° C

Clouds and Precipitation
Forecast for 2017-12-15 00:00 UTC. Updated 8 minutes ago

Ground ~20,000 ft ~40,000 ft Winds

METAR

YBPN 142100Z AUTO 18007KT 9999 // NCD 25/22 Q1010

TAF

Not found

Frequencies

Unicom 126.70 MHz CTAF
Warning: Do not use this data for real-world aviation or navigation. No guarantee of current accuracy is given.